sensor_id;sensor_type;location;lat;lon;timestamp;temperature;humidity
17007;DHT22;8620;51.168;4.154;2024-01-27T07:35:03;2.60;99.90
17007;DHT22;8620;51.168;4.154;2024-01-27T07:37:31;2.80;99.90
17007;DHT22;8620;51.168;4.154;2024-01-27T07:39:57;2.70;99.90
17007;DHT22;8620;51.168;4.154;2024-01-27T07:42:23;2.70;99.90
17007;DHT22;8620;51.168;4.154;2024-01-27T07:44:49;2.80;99.90
17007;DHT22;8620;51.168;4.154;2024-01-27T07:47:15;2.80;99.90
17007;DHT22;8620;51.168;4.154;2024-01-27T07:49:41;2.80;99.90
17007;DHT22;8620;51.168;4.154;2024-01-27T07:52:10;2.70;99.90
17007;DHT22;8620;51.168;4.154;2024-01-27T07:54:37;2.70;99.90
17007;DHT22;8620;51.168;4.154;2024-01-27T07:57:05;2.60;99.90
17007;DHT22;8620;51.168;4.154;2024-01-27T07:59:31;2.70;99.90
17007;DHT22;8620;51.168;4.154;2024-01-27T08:01:57;2.70;99.90
17007;DHT22;8620;51.168;4.154;2024-01-27T08:04:24;2.70;99.90
17007;DHT22;8620;51.168;4.154;2024-01-27T08:06:51;2.80;99.90
17007;DHT22;8620;51.168;4.154;2024-01-27T08:09:17;2.80;99.90
17007;DHT22;8620;51.168;4.154;2024-01-27T08:11:44;2.80;99.90
17007;DHT22;8620;51.168;4.154;2024-01-27T08:14:10;2.90;99.90
17007;DHT22;8620;51.168;4.154;2024-01-27T08:16:36;3.00;99.90
17007;DHT22;8620;51.168;4.154;2024-01-27T08:19:02;2.90;99.90
17007;DHT22;8620;51.168;4.154;2024-01-27T08:21:28;2.90;99.90
17007;DHT22;8620;51.168;4.154;2024-01-27T08:23:54;3.00;99.90
17007;DHT22;8620;51.168;4.154;2024-01-27T08:26:23;3.10;99.90
17007;DHT22;8620;51.168;4.154;2024-01-27T08:28:49;3.10;99.90
17007;DHT22;8620;51.168;4.154;2024-01-27T08:31:15;3.20;99.90
17007;DHT22;8620;51.168;4.154;2024-01-27T08:33:41;3.20;99.90
17007;DHT22;8620;51.168;4.154;2024-01-27T08:36:07;3.20;99.90
17007;DHT22;8620;51.168;4.154;2024-01-27T08:38:33;3.20;99.90
17007;DHT22;8620;51.168;4.154;2024-01-27T08:40:59;3.20;99.90
17007;DHT22;8620;51.168;4.154;2024-01-27T08:43:25;3.40;99.90
17007;DHT22;8620;51.168;4.154;2024-01-27T08:45:51;3.40;99.90
17007;DHT22;8620;51.168;4.154;2024-01-27T08:48:17;3.40;99.90
17007;DHT22;8620;51.168;4.154;2024-01-27T08:50:43;3.40;99.90
17007;DHT22;8620;51.168;4.154;2024-01-27T08:53:11;3.40;99.90
17007;DHT22;8620;51.168;4.154;2024-01-27T08:55:37;3.40;99.90
17007;DHT22;8620;51.168;4.154;2024-01-27T08:58:03;3.50;99.90
17007;DHT22;8620;51.168;4.154;2024-01-27T09:00:30;3.60;99.90
17007;DHT22;8620;51.168;4.154;2024-01-27T09:02:56;3.80;99.90
17007;DHT22;8620;51.168;4.154;2024-01-27T09:05:22;3.90;99.90
17007;DHT22;8620;51.168;4.154;2024-01-27T09:07:48;3.80;99.90
17007;DHT22;8620;51.168;4.154;2024-01-27T09:10:22;4.00;99.90
17007;DHT22;8620;51.168;4.154;2024-01-27T09:12:51;4.00;99.90
17007;DHT22;8620;51.168;4.154;2024-01-27T09:15:19;4.10;99.90
17007;DHT22;8620;51.168;4.154;2024-01-27T09:17:48;4.10;99.90
17007;DHT22;8620;51.168;4.154;2024-01-27T09:20:17;4.00;99.90
17007;DHT22;8620;51.168;4.154;2024-01-27T09:22:46;4.00;99.90
17007;DHT22;8620;51.168;4.154;2024-01-27T09:25:13;4.10;99.90
17007;DHT22;8620;51.168;4.154;2024-01-27T09:27:42;4.30;99.90
17007;DHT22;8620;51.168;4.154;2024-01-27T09:30:08;4.60;99.90
17007;DHT22;8620;51.168;4.154;2024-01-27T09:32:35;4.60;99.90
17007;DHT22;8620;51.168;4.154;2024-01-27T09:35:01;4.50;99.90
17007;DHT22;8620;51.168;4.154;2024-01-27T09:37:27;4.80;99.90
17007;DHT22;8620;51.168;4.154;2024-01-27T09:39:53;5.00;99.90
17007;DHT22;8620;51.168;4.154;2024-01-27T09:42:22;5.30;99.90
17007;DHT22;8620;51.168;4.154;2024-01-27T09:44:49;5.60;99.90
17007;DHT22;8620;51.168;4.154;2024-01-27T09:47:18;5.80;99.90
17007;DHT22;8620;51.168;4.154;2024-01-27T09:49:45;6.10;99.90
17007;DHT22;8620;51.168;4.154;2024-01-27T09:52:17;6.60;99.90
17007;DHT22;8620;51.168;4.154;2024-01-27T09:54:43;7.10;99.90
17007;DHT22;8620;51.168;4.154;2024-01-27T09:57:09;7.30;99.90
17007;DHT22;8620;51.168;4.154;2024-01-27T09:59:40;7.60;99.90
17007;DHT22;8620;51.168;4.154;2024-01-27T10:02:11;7.10;99.90
17007;DHT22;8620;51.168;4.154;2024-01-27T10:04:47;6.90;99.90
17007;DHT22;8620;51.168;4.154;2024-01-27T10:07:14;6.90;99.90
17007;DHT22;8620;51.168;4.154;2024-01-27T10:09:40;7.20;99.90
17007;DHT22;8620;51.168;4.154;2024-01-27T10:12:07;8.20;99.90
17007;DHT22;8620;51.168;4.154;2024-01-27T10:14:39;8.30;99.90
17007;DHT22;8620;51.168;4.154;2024-01-27T10:17:09;8.20;99.90
17007;DHT22;8620;51.168;4.154;2024-01-27T10:19:36;8.20;99.90
17007;DHT22;8620;51.168;4.154;2024-01-27T10:33:26;6.00;99.90
17007;DHT22;8620;51.168;4.154;2024-01-27T10:36:00;6.10;99.90
17007;DHT22;8620;51.168;4.154;2024-01-27T10:38:39;6.20;99.90
17007;DHT22;8620;51.168;4.154;2024-01-27T10:41:10;6.40;99.90
17007;DHT22;8620;51.168;4.154;2024-01-27T10:43:37;6.40;99.90
17007;DHT22;8620;51.168;4.154;2024-01-27T10:46:08;6.40;99.90
17007;DHT22;8620;51.168;4.154;2024-01-27T10:48:42;6.60;99.90
17007;DHT22;8620;51.168;4.154;2024-01-27T10:51:10;6.40;99.90
17007;DHT22;8620;51.168;4.154;2024-01-27T10:53:36;6.50;99.90
17007;DHT22;8620;51.168;4.154;2024-01-27T10:56:05;6.60;99.90
17007;DHT22;8620;51.168;4.154;2024-01-27T10:58:37;6.80;99.90
17007;DHT22;8620;51.168;4.154;2024-01-27T11:01:11;6.90;99.90
17007;DHT22;8620;51.168;4.154;2024-01-27T11:03:39;7.00;99.90
17007;DHT22;8620;51.168;4.154;2024-01-27T11:06:09;7.40;99.90
17007;DHT22;8620;51.168;4.154;2024-01-27T11:08:38;7.20;99.90
17007;DHT22;8620;51.168;4.154;2024-01-27T11:11:05;7.30;99.90
17007;DHT22;8620;51.168;4.154;2024-01-27T11:13:32;7.70;99.90
17007;DHT22;8620;51.168;4.154;2024-01-27T11:15:59;7.90;99.90
17007;DHT22;8620;51.168;4.154;2024-01-27T11:18:26;8.00;99.90
17007;DHT22;8620;51.168;4.154;2024-01-27T11:20:57;7.60;99.90
17007;DHT22;8620;51.168;4.154;2024-01-27T11:23:34;7.60;99.90
17007;DHT22;8620;51.168;4.154;2024-01-27T11:26:08;7.60;99.90
17007;DHT22;8620;51.168;4.154;2024-01-27T11:28:35;7.60;99.90
17007;DHT22;8620;51.168;4.154;2024-01-27T11:31:06;8.00;99.90
17007;DHT22;8620;51.168;4.154;2024-01-27T11:33:33;8.20;99.90
17007;DHT22;8620;51.168;4.154;2024-01-27T11:36:03;8.70;99.90
17007;DHT22;8620;51.168;4.154;2024-01-27T11:38:33;9.70;99.90
17007;DHT22;8620;51.168;4.154;2024-01-27T11:41:02;10.20;99.90
17007;DHT22;8620;51.168;4.154;2024-01-27T11:43:28;9.30;99.90
17007;DHT22;8620;51.168;4.154;2024-01-27T11:45:58;9.30;99.90
17007;DHT22;8620;51.168;4.154;2024-01-27T11:48:24;9.40;99.90
17007;DHT22;8620;51.168;4.154;2024-01-27T11:51:11;9.50;99.90
17007;DHT22;8620;51.168;4.154;2024-01-27T11:53:37;9.30;99.90
17007;DHT22;8620;51.168;4.154;2024-01-27T11:56:04;9.50;99.90
17007;DHT22;8620;51.168;4.154;2024-01-27T11:58:36;9.70;99.90
17007;DHT22;8620;51.168;4.154;2024-01-27T12:01:02;9.80;99.90
17007;DHT22;8620;51.168;4.154;2024-01-27T12:03:29;9.50;99.90
17007;DHT22;8620;51.168;4.154;2024-01-27T12:05:55;9.20;99.90
17007;DHT22;8620;51.168;4.154;2024-01-27T12:08:21;8.80;99.90
17007;DHT22;8620;51.168;4.154;2024-01-27T12:10:50;8.80;99.90
17007;DHT22;8620;51.168;4.154;2024-01-27T12:13:17;9.10;99.90
17007;DHT22;8620;51.168;4.154;2024-01-27T12:15:43;8.90;99.90
17007;DHT22;8620;51.168;4.154;2024-01-27T12:18:09;9.30;99.90
17007;DHT22;8620;51.168;4.154;2024-01-27T12:20:36;9.90;99.90
17007;DHT22;8620;51.168;4.154;2024-01-27T12:23:08;10.00;99.90
17007;DHT22;8620;51.168;4.154;2024-01-27T12:25:39;10.00;99.90
17007;DHT22;8620;51.168;4.154;2024-01-27T12:28:34;9.80;99.90
17007;DHT22;8620;51.168;4.154;2024-01-27T12:31:45;9.70;99.90
17007;DHT22;8620;51.168;4.154;2024-01-27T12:34:29;9.20;99.90
17007;DHT22;8620;51.168;4.154;2024-01-27T12:37:15;9.30;99.90
17007;DHT22;8620;51.168;4.154;2024-01-27T12:39:45;9.30;99.90
17007;DHT22;8620;51.168;4.154;2024-01-27T12:42:37;9.40;99.90
17007;DHT22;8620;51.168;4.154;2024-01-27T12:45:06;9.90;99.90
17007;DHT22;8620;51.168;4.154;2024-01-27T12:47:33;10.10;99.90
17007;DHT22;8620;51.168;4.154;2024-01-27T12:49:59;9.90;99.90
17007;DHT22;8620;51.168;4.154;2024-01-27T12:52:25;10.30;99.90
17007;DHT22;8620;51.168;4.154;2024-01-27T12:54:51;10.20;99.90
17007;DHT22;8620;51.168;4.154;2024-01-27T12:57:17;9.80;99.90
17007;DHT22;8620;51.168;4.154;2024-01-27T12:59:43;9.60;99.90
17007;DHT22;8620;51.168;4.154;2024-01-27T13:02:09;9.80;99.90
17007;DHT22;8620;51.168;4.154;2024-01-27T13:04:38;9.70;99.90
17007;DHT22;8620;51.168;4.154;2024-01-27T13:07:06;9.70;99.90
17007;DHT22;8620;51.168;4.154;2024-01-27T13:09:42;9.50;99.90
17007;DHT22;8620;51.168;4.154;2024-01-27T13:12:08;9.40;99.90
17007;DHT22;8620;51.168;4.154;2024-01-27T13:14:38;9.60;99.90
17007;DHT22;8620;51.168;4.154;2024-01-27T13:17:13;10.00;99.90
17007;DHT22;8620;51.168;4.154;2024-01-27T13:19:42;10.30;99.90
17007;DHT22;8620;51.168;4.154;2024-01-27T13:22:12;10.50;99.90
17007;DHT22;8620;51.168;4.154;2024-01-27T13:24:38;10.40;99.90
17007;DHT22;8620;51.168;4.154;2024-01-27T13:27:04;9.80;99.90
17007;DHT22;8620;51.168;4.154;2024-01-27T13:29:31;9.80;99.90
17007;DHT22;8620;51.168;4.154;2024-01-27T13:31:58;9.90;99.90
17007;DHT22;8620;51.168;4.154;2024-01-27T13:34:27;9.80;99.90
17007;DHT22;8620;51.168;4.154;2024-01-27T13:36:56;9.60;99.90
17007;DHT22;8620;51.168;4.154;2024-01-27T13:39:22;9.50;99.90
17007;DHT22;8620;51.168;4.154;2024-01-27T13:41:48;9.50;99.90
17007;DHT22;8620;51.168;4.154;2024-01-27T13:44:23;9.80;99.90
17007;DHT22;8620;51.168;4.154;2024-01-27T13:46:49;10.20;99.90
17007;DHT22;8620;51.168;4.154;2024-01-27T13:49:16;10.20;99.90
17007;DHT22;8620;51.168;4.154;2024-01-27T13:51:59;10.30;99.90
17007;DHT22;8620;51.168;4.154;2024-01-27T13:54:33;10.60;99.90
17007;DHT22;8620;51.168;4.154;2024-01-27T13:57:02;10.40;99.90
17007;DHT22;8620;51.168;4.154;2024-01-27T13:59:28;10.20;99.90
17007;DHT22;8620;51.168;4.154;2024-01-27T14:02:24;10.60;99.90
17007;DHT22;8620;51.168;4.154;2024-01-27T14:04:51;10.70;99.90
17007;DHT22;8620;51.168;4.154;2024-01-27T14:07:20;11.10;99.90
17007;DHT22;8620;51.168;4.154;2024-01-27T14:09:55;10.60;99.90
17007;DHT22;8620;51.168;4.154;2024-01-27T14:12:28;10.00;99.90
17007;DHT22;8620;51.168;4.154;2024-01-27T14:15:15;9.90;99.90
17007;DHT22;8620;51.168;4.154;2024-01-27T14:17:43;10.10;99.90
17007;DHT22;8620;51.168;4.154;2024-01-27T14:20:19;10.20;99.90
17007;DHT22;8620;51.168;4.154;2024-01-27T14:22:45;10.40;99.90
17007;DHT22;8620;51.168;4.154;2024-01-27T14:25:11;10.10;99.90
17007;DHT22;8620;51.168;4.154;2024-01-27T14:27:43;9.90;99.90
17007;DHT22;8620;51.168;4.154;2024-01-27T14:30:24;9.80;99.90
17007;DHT22;8620;51.168;4.154;2024-01-27T14:32:56;9.60;99.90
17007;DHT22;8620;51.168;4.154;2024-01-27T14:35:28;9.40;99.90
17007;DHT22;8620;51.168;4.154;2024-01-27T14:37:57;9.50;99.90
17007;DHT22;8620;51.168;4.154;2024-01-27T14:40:29;9.40;99.90
17007;DHT22;8620;51.168;4.154;2024-01-27T14:43:00;9.50;99.90
17007;DHT22;8620;51.168;4.154;2024-01-27T14:45:31;9.50;99.90
17007;DHT22;8620;51.168;4.154;2024-01-27T14:47:57;9.40;99.90
17007;DHT22;8620;51.168;4.154;2024-01-27T14:50:23;9.20;99.90
17007;DHT22;8620;51.168;4.154;2024-01-27T14:52:49;9.20;99.90
17007;DHT22;8620;51.168;4.154;2024-01-27T14:55:15;9.10;99.90
17007;DHT22;8620;51.168;4.154;2024-01-27T14:57:44;9.40;99.90
17007;DHT22;8620;51.168;4.154;2024-01-27T15:00:10;9.40;99.90
17007;DHT22;8620;51.168;4.154;2024-01-27T15:02:49;9.30;99.90
17007;DHT22;8620;51.168;4.154;2024-01-27T15:05:15;9.60;99.90
17007;DHT22;8620;51.168;4.154;2024-01-27T15:07:41;9.60;99.90
17007;DHT22;8620;51.168;4.154;2024-01-27T15:10:07;9.20;99.90
17007;DHT22;8620;51.168;4.154;2024-01-27T15:12:33;9.20;99.90
17007;DHT22;8620;51.168;4.154;2024-01-27T15:14:59;9.40;99.90
17007;DHT22;8620;51.168;4.154;2024-01-27T15:17:25;9.10;99.90
17007;DHT22;8620;51.168;4.154;2024-01-27T15:19:51;8.90;99.90
17007;DHT22;8620;51.168;4.154;2024-01-27T15:22:17;9.00;99.90
17007;DHT22;8620;51.168;4.154;2024-01-27T15:24:44;9.30;99.90
17007;DHT22;8620;51.168;4.154;2024-01-27T15:27:10;9.30;99.90
17007;DHT22;8620;51.168;4.154;2024-01-27T15:29:36;9.10;99.90
17007;DHT22;8620;51.168;4.154;2024-01-27T15:32:02;8.80;99.90
17007;DHT22;8620;51.168;4.154;2024-01-27T15:34:29;8.80;99.90
17007;DHT22;8620;51.168;4.154;2024-01-27T15:36:54;8.90;99.90
17007;DHT22;8620;51.168;4.154;2024-01-27T15:39:20;8.80;99.90
17007;DHT22;8620;51.168;4.154;2024-01-27T15:41:46;8.60;99.90
17007;DHT22;8620;51.168;4.154;2024-01-27T15:44:12;8.60;99.90
17007;DHT22;8620;51.168;4.154;2024-01-27T15:46:40;8.60;99.90
17007;DHT22;8620;51.168;4.154;2024-01-27T15:49:07;8.80;99.90
17007;DHT22;8620;51.168;4.154;2024-01-27T15:51:33;8.80;99.90
17007;DHT22;8620;51.168;4.154;2024-01-27T15:54:03;9.00;99.90
17007;DHT22;8620;51.168;4.154;2024-01-27T15:56:32;9.10;99.90
17007;DHT22;8620;51.168;4.154;2024-01-27T15:58:58;9.10;99.90
17007;DHT22;8620;51.168;4.154;2024-01-27T16:01:24;9.20;99.90
17007;DHT22;8620;51.168;4.154;2024-01-27T16:03:52;8.90;99.90
17007;DHT22;8620;51.168;4.154;2024-01-27T16:06:21;8.70;99.90
17007;DHT22;8620;51.168;4.154;2024-01-27T16:08:47;8.50;99.90
17007;DHT22;8620;51.168;4.154;2024-01-27T16:11:22;8.60;99.90
17007;DHT22;8620;51.168;4.154;2024-01-27T16:13:51;8.60;99.90
17007;DHT22;8620;51.168;4.154;2024-01-27T16:16:20;8.60;99.90
17007;DHT22;8620;51.168;4.154;2024-01-27T16:18:49;8.80;99.90
17007;DHT22;8620;51.168;4.154;2024-01-27T16:21:20;8.70;99.90
17007;DHT22;8620;51.168;4.154;2024-01-27T16:23:55;8.60;99.90
17007;DHT22;8620;51.168;4.154;2024-01-27T16:26:25;8.60;99.90
17007;DHT22;8620;51.168;4.154;2024-01-27T16:28:55;8.70;99.90
17007;DHT22;8620;51.168;4.154;2024-01-27T16:31:28;8.70;99.90
17007;DHT22;8620;51.168;4.154;2024-01-27T16:34:02;8.60;99.90
17007;DHT22;8620;51.168;4.154;2024-01-27T16:36:28;8.60;99.90
17007;DHT22;8620;51.168;4.154;2024-01-27T16:38:58;8.60;99.90
17007;DHT22;8620;51.168;4.154;2024-01-27T16:41:29;8.50;99.90
17007;DHT22;8620;51.168;4.154;2024-01-27T16:43:58;8.60;99.90
17007;DHT22;8620;51.168;4.154;2024-01-27T16:46:27;8.80;99.90
17007;DHT22;8620;51.168;4.154;2024-01-27T16:49:04;9.00;99.90
17007;DHT22;8620;51.168;4.154;2024-01-27T16:51:30;9.00;99.90
17007;DHT22;8620;51.168;4.154;2024-01-27T16:53:56;9.20;99.90
17007;DHT22;8620;51.168;4.154;2024-01-27T16:56:22;9.10;99.90
17007;DHT22;8620;51.168;4.154;2024-01-27T16:58:56;8.90;99.90
17007;DHT22;8620;51.168;4.154;2024-01-27T17:01:30;8.80;99.90
17007;DHT22;8620;51.168;4.154;2024-01-27T17:04:03;8.70;99.90
17007;DHT22;8620;51.168;4.154;2024-01-27T17:06:35;8.70;99.90
17007;DHT22;8620;51.168;4.154;2024-01-27T17:09:08;8.70;99.90
17007;DHT22;8620;51.168;4.154;2024-01-27T17:11:45;8.60;99.90
17007;DHT22;8620;51.168;4.154;2024-01-27T17:14:17;8.50;99.90
17007;DHT22;8620;51.168;4.154;2024-01-27T17:17:01;8.70;99.90
17007;DHT22;8620;51.168;4.154;2024-01-27T17:22:25;8.90;99.90
17007;DHT22;8620;51.168;4.154;2024-01-27T17:25:07;8.70;99.90
17007;DHT22;8620;51.168;4.154;2024-01-27T17:27:34;8.50;99.90
17007;DHT22;8620;51.168;4.154;2024-01-27T17:30:12;8.50;99.90
17007;DHT22;8620;51.168;4.154;2024-01-27T17:32:45;8.50;99.90
17007;DHT22;8620;51.168;4.154;2024-01-27T17:35:48;8.60;99.90
17007;DHT22;8620;51.168;4.154;2024-01-27T17:38:14;8.60;99.90
17007;DHT22;8620;51.168;4.154;2024-01-27T17:41:04;8.40;99.90
17007;DHT22;8620;51.168;4.154;2024-01-27T17:43:48;8.20;99.90
17007;DHT22;8620;51.168;4.154;2024-01-27T17:46:22;8.30;99.90
17007;DHT22;8620;51.168;4.154;2024-01-27T17:48:53;8.40;99.90
17007;DHT22;8620;51.168;4.154;2024-01-27T17:51:22;8.20;99.90
17007;DHT22;8620;51.168;4.154;2024-01-27T17:53:48;8.00;99.90
17007;DHT22;8620;51.168;4.154;2024-01-27T17:56:23;7.90;99.90
17007;DHT22;8620;51.168;4.154;2024-01-27T17:58:53;7.80;99.90
17007;DHT22;8620;51.168;4.154;2024-01-27T18:01:25;7.60;99.90
17007;DHT22;8620;51.168;4.154;2024-01-27T18:03:50;7.40;99.90
17007;DHT22;8620;51.168;4.154;2024-01-27T18:06:16;7.20;99.90
17007;DHT22;8620;51.168;4.154;2024-01-27T18:08:45;7.00;99.90
17007;DHT22;8620;51.168;4.154;2024-01-27T18:11:11;7.10;99.90
17007;DHT22;8620;51.168;4.154;2024-01-27T18:13:43;6.90;99.90
17007;DHT22;8620;51.168;4.154;2024-01-27T18:16:15;6.90;99.90
17007;DHT22;8620;51.168;4.154;2024-01-27T18:18:47;6.90;99.90
17007;DHT22;8620;51.168;4.154;2024-01-27T18:21:16;6.90;99.90
17007;DHT22;8620;51.168;4.154;2024-01-27T18:23:44;6.90;99.90
17007;DHT22;8620;51.168;4.154;2024-01-27T18:26:11;6.90;99.90
17007;DHT22;8620;51.168;4.154;2024-01-27T18:28:40;6.80;99.90
17007;DHT22;8620;51.168;4.154;2024-01-27T18:31:09;6.70;99.90
17007;DHT22;8620;51.168;4.154;2024-01-27T18:33:35;6.70;99.90
17007;DHT22;8620;51.168;4.154;2024-01-27T18:36:01;6.70;99.90
17007;DHT22;8620;51.168;4.154;2024-01-27T18:38:27;6.60;99.90
17007;DHT22;8620;51.168;4.154;2024-01-27T18:41:08;6.70;99.90
17007;DHT22;8620;51.168;4.154;2024-01-27T18:43:40;6.70;99.90
17007;DHT22;8620;51.168;4.154;2024-01-27T18:46:09;6.60;99.90
17007;DHT22;8620;51.168;4.154;2024-01-27T18:48:38;6.60;99.90
17007;DHT22;8620;51.168;4.154;2024-01-27T18:51:05;6.50;99.90
17007;DHT22;8620;51.168;4.154;2024-01-27T18:53:34;6.50;99.90
17007;DHT22;8620;51.168;4.154;2024-01-27T18:56:01;6.50;99.90
17007;DHT22;8620;51.168;4.154;2024-01-27T18:58:30;6.40;99.90
17007;DHT22;8620;51.168;4.154;2024-01-27T19:00:59;6.40;99.90
17007;DHT22;8620;51.168;4.154;2024-01-27T19:03:31;6.30;99.90
17007;DHT22;8620;51.168;4.154;2024-01-27T19:06:07;6.30;99.90
17007;DHT22;8620;51.168;4.154;2024-01-27T19:08:38;6.30;99.90
17007;DHT22;8620;51.168;4.154;2024-01-27T19:11:05;6.40;99.90
17007;DHT22;8620;51.168;4.154;2024-01-27T19:13:34;6.40;99.90
17007;DHT22;8620;51.168;4.154;2024-01-27T19:16:00;6.30;99.90
17007;DHT22;8620;51.168;4.154;2024-01-27T19:18:26;6.20;99.90
17007;DHT22;8620;51.168;4.154;2024-01-27T19:21:01;6.20;99.90
17007;DHT22;8620;51.168;4.154;2024-01-27T19:23:34;6.00;99.90
17007;DHT22;8620;51.168;4.154;2024-01-27T19:26:04;5.90;99.90
17007;DHT22;8620;51.168;4.154;2024-01-27T19:28:30;6.00;99.90
17007;DHT22;8620;51.168;4.154;2024-01-27T19:30:56;6.00;99.90
17007;DHT22;8620;51.168;4.154;2024-01-27T19:33:22;6.00;99.90
17007;DHT22;8620;51.168;4.154;2024-01-27T19:35:50;6.00;99.90
17007;DHT22;8620;51.168;4.154;2024-01-27T19:38:19;6.00;99.90
17007;DHT22;8620;51.168;4.154;2024-01-27T19:41:00;5.80;99.90
17007;DHT22;8620;51.168;4.154;2024-01-27T19:43:35;5.90;99.90
17007;DHT22;8620;51.168;4.154;2024-01-27T19:46:03;6.10;99.90
17007;DHT22;8620;51.168;4.154;2024-01-27T19:48:32;6.10;99.90
17007;DHT22;8620;51.168;4.154;2024-01-27T19:50:58;6.10;99.90
17007;DHT22;8620;51.168;4.154;2024-01-27T19:53:39;6.10;99.90
17007;DHT22;8620;51.168;4.154;2024-01-27T19:56:14;6.10;99.90
17007;DHT22;8620;51.168;4.154;2024-01-27T19:58:40;6.20;99.90
17007;DHT22;8620;51.168;4.154;2024-01-27T20:01:08;6.20;99.90
17007;DHT22;8620;51.168;4.154;2024-01-27T20:03:37;6.30;99.90
17007;DHT22;8620;51.168;4.154;2024-01-27T20:06:06;6.20;99.90
17007;DHT22;8620;51.168;4.154;2024-01-27T20:08:35;6.10;99.90
17007;DHT22;8620;51.168;4.154;2024-01-27T20:11:01;5.90;99.90
17007;DHT22;8620;51.168;4.154;2024-01-27T20:13:30;5.90;99.90
17007;DHT22;8620;51.168;4.154;2024-01-27T20:15:56;5.80;99.90
17007;DHT22;8620;51.168;4.154;2024-01-27T20:18:28;5.60;99.90
17007;DHT22;8620;51.168;4.154;2024-01-27T20:20:54;5.40;99.90
17007;DHT22;8620;51.168;4.154;2024-01-27T20:23:33;5.50;99.90
17007;DHT22;8620;51.168;4.154;2024-01-27T20:26:03;5.50;99.90
17007;DHT22;8620;51.168;4.154;2024-01-27T20:28:36;5.50;99.90
17007;DHT22;8620;51.168;4.154;2024-01-27T20:31:11;5.60;99.90
17007;DHT22;8620;51.168;4.154;2024-01-27T20:33:37;5.60;99.90
17007;DHT22;8620;51.168;4.154;2024-01-27T20:36:03;5.90;99.90
17007;DHT22;8620;51.168;4.154;2024-01-27T20:38:31;6.00;99.90
17007;DHT22;8620;51.168;4.154;2024-01-27T20:41:03;5.80;99.90
17007;DHT22;8620;51.168;4.154;2024-01-27T20:43:31;5.50;99.90
17007;DHT22;8620;51.168;4.154;2024-01-27T20:46:03;5.30;99.90
17007;DHT22;8620;51.168;4.154;2024-01-27T20:49:23;5.30;99.90
17007;DHT22;8620;51.168;4.154;2024-01-27T20:52:17;5.20;99.90
17007;DHT22;8620;51.168;4.154;2024-01-27T20:54:53;5.20;99.90
17007;DHT22;8620;51.168;4.154;2024-01-27T20:57:22;5.40;99.90
